createdAt,value
2023-03-21T00:01:59.631Z,100203.97
2023-03-21T00:04:37.934Z,100201.66
2023-03-21T00:07:12.523Z,100205.28
2023-03-21T00:09:42.639Z,100200.50
2023-03-21T00:12:11.765Z,100202.34
2023-03-21T00:14:41.468Z,100210.28
2023-03-21T00:17:10.912Z,100200.38
2023-03-21T00:19:41.358Z,100201.19
2023-03-21T00:22:10.129Z,100200.88
2023-03-21T00:24:39.354Z,100208.34
2023-03-21T00:27:38.357Z,100215.59
2023-03-21T00:30:00.220Z,100211.31
2023-03-21T00:32:28.424Z,100212.28
2023-03-21T00:35:16.340Z,100215.78
2023-03-21T00:37:45.079Z,100208.16
2023-03-21T00:40:26.737Z,100213.28
2023-03-21T00:42:59.605Z,100209.34
2023-03-21T00:45:29.266Z,100218.94
2023-03-21T00:47:57.839Z,100221.22
2023-03-21T00:50:26.244Z,100213.66
2023-03-21T00:52:54.696Z,100207.88
2023-03-21T00:55:22.728Z,100202.25
2023-03-21T00:58:01.270Z,100212.03
2023-03-21T01:00:33.088Z,100206.72
2023-03-21T01:03:17.529Z,100203.75
2023-03-21T01:06:06.152Z,100208.72
2023-03-21T01:08:50.652Z,100206.56
2023-03-21T01:11:22.729Z,100201.78
2023-03-21T01:13:56.014Z,100214.19
2023-03-21T01:16:27.642Z,100206.91
2023-03-21T01:18:56.333Z,100196.16
2023-03-21T01:21:24.474Z,100197.47
2023-03-21T01:23:53.478Z,100198.97
2023-03-21T01:26:21.864Z,100201.47
2023-03-21T01:28:50.022Z,100198.81
2023-03-21T01:31:19.102Z,100194.69
2023-03-21T01:33:49.043Z,100188.56
2023-03-21T01:36:23.539Z,100196.16
2023-03-21T01:38:52.704Z,100191.50
2023-03-21T01:41:36.624Z,100194.31
2023-03-21T01:44:08.938Z,100188.38
2023-03-21T01:46:53.912Z,100185.06
2023-03-21T01:49:34.284Z,100195.81
2023-03-21T01:52:13.148Z,100193.78
2023-03-21T01:54:45.330Z,100205.69
2023-03-21T01:57:17.974Z,100194.59
2023-03-21T01:59:58.277Z,100187.81
2023-03-21T02:02:30.034Z,100197.72
2023-03-21T02:05:04.085Z,100200.69
2023-03-21T02:07:35.841Z,100194.41
2023-03-21T02:10:08.160Z,100199.53
2023-03-21T02:12:36.650Z,100204.66
2023-03-21T02:15:06.243Z,100214.28
2023-03-21T02:17:42.485Z,100209.78
2023-03-21T02:20:40.537Z,100207.94
2023-03-21T02:23:39.952Z,100210.56
2023-03-21T02:26:42.280Z,100210.19
2023-03-21T02:29:31.154Z,100226.19
2023-03-21T02:32:22.603Z,100229.97
2023-03-21T02:35:19.803Z,100224.53
2023-03-21T02:38:00.594Z,100217.13
2023-03-21T02:40:35.541Z,100218.78
2023-03-21T02:43:20.848Z,100217.78
2023-03-21T02:45:56.055Z,100222.94
2023-03-21T02:48:48.126Z,100230.34
2023-03-21T02:51:21.848Z,100231.31
2023-03-21T02:54:24.609Z,100232.00
2023-03-21T02:56:49.214Z,100232.00
2023-03-21T02:59:19.619Z,100236.59
2023-03-21T03:01:47.728Z,100238.56
2023-03-21T03:04:24.665Z,100235.56
2023-03-21T03:07:12.581Z,100235.41
2023-03-21T03:10:01.115Z,100238.88
2023-03-21T03:12:35.989Z,100237.38
2023-03-21T03:15:18.250Z,100233.59
2023-03-21T03:17:53.228Z,100238.56
2023-03-21T03:20:38.005Z,100240.09
2023-03-21T03:23:18.545Z,100241.75
2023-03-21T03:25:52.620Z,100248.84
2023-03-21T03:28:25.853Z,100246.50
2023-03-21T03:31:07.902Z,100249.97
2023-03-21T03:33:41.500Z,100253.59
2023-03-21T03:36:30.345Z,100244.69
2023-03-21T03:38:59.676Z,100254.94
2023-03-21T03:41:40.476Z,100256.25
2023-03-21T03:44:18.503Z,100250.97
2023-03-21T03:46:53.970Z,100255.88
2023-03-21T03:49:26.041Z,100260.16
2023-03-21T03:51:59.731Z,100260.59
2023-03-21T03:54:33.898Z,100264.38
2023-03-21T03:57:05.163Z,100267.22
2023-03-21T03:59:36.089Z,100263.75
2023-03-21T04:02:06.819Z,100266.69
2023-03-21T04:04:35.167Z,100275.06
2023-03-21T04:07:03.696Z,100272.22
2023-03-21T04:09:43.601Z,100268.91
2023-03-21T04:12:14.887Z,100266.13
2023-03-21T04:14:47.484Z,100268.28
2023-03-21T04:17:17.078Z,100272.41
2023-03-21T04:19:45.614Z,100276.41
2023-03-21T04:22:14.640Z,100268.50
2023-03-21T04:24:43.010Z,100261.56
2023-03-21T04:27:11.478Z,100262.38
2023-03-21T04:29:41.856Z,100266.59
2023-03-21T04:32:16.515Z,100267.25
2023-03-21T04:34:50.317Z,100265.75
2023-03-21T04:37:19.855Z,100269.34
2023-03-21T04:39:48.172Z,100261.44
2023-03-21T04:42:18.600Z,100263.41
2023-03-21T04:44:49.965Z,100266.88
2023-03-21T04:47:20.501Z,100268.69
2023-03-21T04:49:49.685Z,100256.78
2023-03-21T04:52:17.944Z,100259.44
2023-03-21T04:54:46.605Z,100256.78
2023-03-21T04:57:15.402Z,100259.44
2023-03-21T04:59:46.446Z,100268.84
2023-03-21T05:02:16.097Z,100270.34
2023-03-21T05:04:44.386Z,100266.56
2023-03-21T05:07:12.651Z,100270.88
2023-03-21T05:09:40.926Z,100272.38
2023-03-21T05:12:09.383Z,100277.19
2023-03-21T05:14:37.514Z,100281.69
2023-03-21T05:17:05.707Z,100287.19
2023-03-21T05:19:40.573Z,100288.16
2023-03-21T05:22:10.180Z,100295.28
2023-03-21T05:24:39.336Z,100297.25
2023-03-21T05:27:07.502Z,100295.28
2023-03-21T05:29:36.596Z,100293.44
2023-03-21T05:32:05.306Z,100304.19
2023-03-21T05:34:35.215Z,100308.13
2023-03-21T05:37:03.326Z,100296.03
2023-03-21T05:39:31.452Z,100299.53
2023-03-21T05:42:00.122Z,100306.47
2023-03-21T05:44:29.355Z,100301.31
2023-03-21T05:47:00.263Z,100301.63
2023-03-21T05:49:28.402Z,100301.13
2023-03-21T05:51:57.894Z,100299.09
2023-03-21T05:54:26.091Z,100295.78
2023-03-21T05:56:54.139Z,100300.53
2023-03-21T05:59:22.218Z,100297.53
2023-03-21T06:01:51.044Z,100305.22
2023-03-21T06:04:19.116Z,100306.28
2023-03-21T06:06:47.796Z,100299.34
2023-03-21T06:09:17.459Z,100303.50
2023-03-21T06:11:51.996Z,100298.97
2023-03-21T06:14:21.166Z,100298.22
2023-03-21T06:16:49.645Z,100307.03
2023-03-21T06:19:18.187Z,100301.44
2023-03-21T06:21:46.269Z,100304.81
2023-03-21T06:24:14.830Z,100299.56
2023-03-21T06:26:44.417Z,100306.28
2023-03-21T06:29:13.022Z,100307.97
2023-03-21T06:31:41.375Z,100306.88
2023-03-21T06:34:10.863Z,100315.31
2023-03-21T06:36:38.998Z,100313.19
2023-03-21T06:39:08.330Z,100318.31
2023-03-21T06:41:36.460Z,100314.22
2023-03-21T06:44:06.500Z,100316.56
2023-03-21T06:46:34.797Z,100317.38
2023-03-21T06:49:03.062Z,100326.44
2023-03-21T06:51:31.165Z,100316.72
2023-03-21T06:53:59.512Z,100322.66
2023-03-21T06:56:27.971Z,100326.00
2023-03-21T06:58:59.391Z,100324.03
2023-03-21T07:01:30.663Z,100333.16
2023-03-21T07:03:59.618Z,100337.13
2023-03-21T07:06:28.597Z,100339.25
2023-03-21T07:08:57.608Z,100338.13
2023-03-21T07:11:26.992Z,100350.72
2023-03-21T07:13:55.861Z,100345.78
2023-03-21T07:16:25.048Z,100337.22
2023-03-21T07:18:55.028Z,100343.50
2023-03-21T07:21:23.467Z,100348.03
2023-03-21T07:23:52.248Z,100340.56
2023-03-21T07:26:20.765Z,100346.06
2023-03-21T07:28:49.526Z,100341.28
2023-03-21T07:31:19.575Z,100349.53
2023-03-21T07:33:47.843Z,100355.88
2023-03-21T07:36:17.865Z,100350.25
2023-03-21T07:38:46.932Z,100358.00
2023-03-21T07:43:46.040Z,100352.91
2023-03-21T07:46:14.264Z,100352.75
2023-03-21T07:48:49.263Z,100353.94
2023-03-21T07:51:18.815Z,100355.41
2023-03-21T07:53:48.887Z,100345.00
2023-03-21T07:56:17.190Z,100344.81
2023-03-21T07:58:45.305Z,100333.38
2023-03-21T08:01:13.516Z,100340.03
2023-03-21T08:03:41.580Z,100349.44
2023-03-21T08:06:10.873Z,100347.13
2023-03-21T08:08:40.385Z,100344.66
2023-03-21T08:11:09.012Z,100340.50
2023-03-21T08:13:37.244Z,100339.69
2023-03-21T08:16:06.191Z,100335.22
2023-03-21T08:18:34.275Z,100331.41
2023-03-21T08:21:02.862Z,100327.09
2023-03-21T08:23:31.021Z,100327.22
2023-03-21T08:26:04.263Z,100332.28
2023-03-21T08:28:32.499Z,100335.88
2023-03-21T08:31:00.855Z,100339.34
2023-03-21T08:33:29.283Z,100330.53
2023-03-21T08:36:00.689Z,100333.97
2023-03-21T08:38:30.393Z,100324.78
2023-03-21T08:41:00.533Z,100319.94
2023-03-21T08:43:31.332Z,100332.16
2023-03-21T08:45:59.435Z,100330.75
2023-03-21T08:48:27.584Z,100341.53
2023-03-21T08:50:55.770Z,100333.97
2023-03-21T08:53:23.811Z,100334.03
2023-03-21T08:55:51.954Z,100323.41
2023-03-21T08:58:20.036Z,100322.00
2023-03-21T09:00:49.785Z,100325.38
2023-03-21T09:03:17.849Z,100326.94
2023-03-21T09:05:46.641Z,100323.66
2023-03-21T09:08:14.958Z,100326.09
2023-03-21T09:10:42.988Z,100340.84
2023-03-21T09:13:11.072Z,100327.63
2023-03-21T09:15:39.409Z,100327.78
2023-03-21T09:18:15.704Z,100332.28
2023-03-21T09:20:45.970Z,100327.53
2023-03-21T09:23:15.774Z,100334.22
2023-03-21T09:25:46.996Z,100325.94
2023-03-21T09:28:16.535Z,100330.34
2023-03-21T09:30:44.771Z,100329.03
2023-03-21T09:33:21.301Z,100328.50
2023-03-21T09:35:51.758Z,100331.91
2023-03-21T09:38:20.694Z,100326.72
2023-03-21T09:41:01.197Z,100336.59
2023-03-21T09:43:43.940Z,100327.25
2023-03-21T09:46:20.778Z,100324.03
2023-03-21T09:48:58.017Z,100329.34
2023-03-21T09:51:30.388Z,100320.38
2023-03-21T09:54:04.181Z,100329.78
2023-03-21T09:56:33.233Z,100328.66
2023-03-21T09:59:06.189Z,100325.06
2023-03-21T10:01:45.707Z,100327.09
2023-03-21T10:04:18.998Z,100326.19
2023-03-21T10:06:52.372Z,100329.94
2023-03-21T10:09:24.837Z,100325.44
2023-03-21T10:11:59.980Z,100324.53
2023-03-21T10:14:32.587Z,100314.41
2023-03-21T10:17:04.220Z,100319.41
2023-03-21T10:19:33.968Z,100311.19
2023-03-21T10:22:03.985Z,100306.88
2023-03-21T10:24:36.035Z,100300.50
2023-03-21T10:27:05.669Z,100304.91
2023-03-21T10:29:38.862Z,100304.09
2023-03-21T10:32:10.714Z,100305.25
2023-03-21T10:34:43.872Z,100312.00
2023-03-21T10:37:25.061Z,100311.47
2023-03-21T10:39:56.929Z,100307.16
2023-03-21T10:42:29.454Z,100306.25
2023-03-21T10:45:06.598Z,100305.69
2023-03-21T10:47:37.748Z,100308.53
2023-03-21T10:50:11.117Z,100293.94
2023-03-21T10:52:46.418Z,100296.72
2023-03-21T10:55:23.476Z,100293.97
2023-03-21T10:57:59.075Z,100298.44
2023-03-21T11:00:31.699Z,100292.91
2023-03-21T11:03:01.430Z,100281.31
2023-03-21T11:05:37.457Z,100293.56
2023-03-21T11:08:08.106Z,100288.84
2023-03-21T11:10:38.181Z,100282.25
2023-03-21T11:13:09.742Z,100278.44
2023-03-21T11:15:47.848Z,100271.03
2023-03-21T11:18:20.496Z,100275.34
2023-03-21T11:20:55.761Z,100268.31
2023-03-21T11:23:28.513Z,100267.78
2023-03-21T11:26:13.185Z,100267.66
2023-03-21T11:28:44.973Z,100264.22
2023-03-21T11:31:13.569Z,100262.84
2023-03-21T11:33:49.354Z,100249.16
2023-03-21T11:36:34.912Z,100252.91
2023-03-21T11:39:14.764Z,100259.59
2023-03-21T11:41:51.787Z,100253.28
2023-03-21T11:44:28.964Z,100253.75
2023-03-21T11:47:06.614Z,100252.66
2023-03-21T11:49:35.162Z,100251.03
2023-03-21T11:52:19.496Z,100251.28
2023-03-21T11:55:11.477Z,100242.63
2023-03-21T11:57:45.333Z,100240.78
2023-03-21T12:00:22.847Z,100242.25
2023-03-21T12:03:48.714Z,100235.00
2023-03-21T12:06:25.444Z,100233.41
2023-03-21T12:09:18.850Z,100223.94
2023-03-21T12:12:22.192Z,100227.88
2023-03-21T12:15:03.166Z,100233.69
2023-03-21T12:17:44.647Z,100225.44
2023-03-21T12:20:24.537Z,100238.84
2023-03-21T12:23:05.296Z,100234.53
2023-03-21T12:25:42.160Z,100229.78
2023-03-21T12:28:32.516Z,100222.78
2023-03-21T12:31:14.430Z,100227.53
2023-03-21T12:33:55.702Z,100235.94
2023-03-21T12:36:49.217Z,100220.72
2023-03-21T12:39:29.778Z,100228.34
2023-03-21T12:42:14.977Z,100223.22
2023-03-21T12:44:50.860Z,100223.00
2023-03-21T12:47:25.422Z,100220.13
2023-03-21T12:50:03.025Z,100214.78
2023-03-21T12:52:35.068Z,100211.47
2023-03-21T12:55:08.221Z,100208.59
2023-03-21T12:57:47.735Z,100208.19
2023-03-21T13:00:24.753Z,100206.13
2023-03-21T13:02:57.035Z,100194.22
2023-03-21T13:05:30.705Z,100182.47
2023-03-21T13:08:04.346Z,100181.84
2023-03-21T13:10:34.186Z,100178.38
2023-03-21T13:13:19.874Z,100162.28
2023-03-21T13:16:09.144Z,100165.19
2023-03-21T13:18:50.244Z,100160.44
2023-03-21T13:21:24.510Z,100157.97
2023-03-21T13:24:03.932Z,100148.72
2023-03-21T13:26:41.195Z,100146.66
2023-03-21T13:29:25.042Z,100142.16
2023-03-21T13:31:57.583Z,100141.53
2023-03-21T13:34:27.092Z,100133.28
2023-03-21T13:36:58.013Z,100132.28
2023-03-21T13:39:29.402Z,100123.00
2023-03-21T13:42:06.628Z,100120.75
2023-03-21T13:44:43.094Z,100127.53
2023-03-21T13:47:44.023Z,100125.28
2023-03-21T13:50:52.738Z,100122.00
2023-03-21T13:53:43.942Z,100123.41
2023-03-21T13:56:23.824Z,100117.03
2023-03-21T13:58:59.604Z,100110.88
2023-03-21T14:02:21.128Z,100117.44
2023-03-21T14:05:04.745Z,100111.13
2023-03-21T14:07:36.840Z,100105.75
2023-03-21T14:10:09.603Z,100094.41
2023-03-21T14:12:44.905Z,100096.06
2023-03-21T14:15:19.999Z,100094.59
2023-03-21T14:17:56.266Z,100090.66
2023-03-21T14:20:26.652Z,100090.44
2023-03-21T14:22:55.318Z,100087.72
2023-03-21T14:25:29.187Z,100077.84
2023-03-21T14:28:03.993Z,100073.56
2023-03-21T14:30:35.740Z,100082.44
2023-03-21T14:33:15.433Z,100077.50
2023-03-21T14:35:46.924Z,100071.97
2023-03-21T14:38:22.205Z,100063.09
2023-03-21T14:40:54.586Z,100067.63
2023-03-21T14:43:24.233Z,100060.22
2023-03-21T14:45:54.617Z,100049.13
2023-03-21T14:48:31.768Z,100044.78
2023-03-21T14:51:04.948Z,100040.28
2023-03-21T14:53:37.318Z,100033.50
2023-03-21T14:56:10.607Z,100025.50
2023-03-21T14:58:41.767Z,100026.34
2023-03-21T15:01:17.468Z,100037.25
2023-03-21T15:03:47.816Z,100022.44
2023-03-21T15:06:17.609Z,100012.38
2023-03-21T15:08:56.011Z,100013.59
2023-03-21T15:11:32.234Z,100019.34
2023-03-21T15:14:02.895Z,100008.47
2023-03-21T15:16:32.550Z,100000.25
2023-03-21T15:19:05.265Z,100002.34
2023-03-21T15:21:37.477Z,99994.31
2023-03-21T15:24:13.680Z,99997.19
2023-03-21T15:26:46.226Z,99991.84
2023-03-21T15:29:17.061Z,99986.72
2023-03-21T15:31:47.952Z,99986.91
2023-03-21T15:34:22.948Z,99984.84
2023-03-21T15:36:58.135Z,99977.47
2023-03-21T15:39:28.578Z,99976.84
2023-03-21T15:42:04.173Z,99972.13
2023-03-21T15:44:34.584Z,99969.66
2023-03-21T15:47:03.284Z,99969.66
2023-03-21T15:49:34.426Z,99962.88
2023-03-21T15:52:07.163Z,99976.44
2023-03-21T15:54:40.028Z,99966.09
2023-03-21T15:57:23.027Z,99957.75
2023-03-21T15:59:51.885Z,99963.47
2023-03-21T16:02:22.744Z,99958.44
2023-03-21T16:05:00.448Z,99953.53
2023-03-21T16:07:29.614Z,99949.09
2023-03-21T16:10:05.785Z,99945.97
2023-03-21T16:12:34.326Z,99947.50
2023-03-21T16:15:06.353Z,99941.19
2023-03-21T16:17:37.826Z,99946.34
2023-03-21T16:20:23.039Z,99940.31
2023-03-21T16:22:51.425Z,99942.84
2023-03-21T16:25:20.326Z,99944.22
2023-03-21T16:27:49.173Z,99951.38
2023-03-21T16:30:19.986Z,99947.16
2023-03-21T16:32:48.129Z,99942.44
2023-03-21T16:35:26.185Z,99924.47
2023-03-21T16:37:54.289Z,99925.78
2023-03-21T16:40:28.838Z,99929.56
2023-03-21T16:42:58.539Z,99932.06
2023-03-21T16:45:28.857Z,99928.19
2023-03-21T16:47:57.398Z,99937.00
2023-03-21T16:50:29.857Z,99932.50
2023-03-21T16:52:59.629Z,99926.91
2023-03-21T16:55:28.470Z,99920.50
2023-03-21T16:57:57.764Z,99924.75
2023-03-21T17:00:28.356Z,99917.53
2023-03-21T17:02:57.119Z,99911.75
2023-03-21T17:05:28.378Z,99907.81
2023-03-21T17:07:56.615Z,99905.91
2023-03-21T17:10:26.797Z,99910.78
2023-03-21T17:12:55.671Z,99910.09
2023-03-21T17:15:23.863Z,99906.59
2023-03-21T17:17:52.171Z,99907.34
2023-03-21T17:20:23.626Z,99908.78
2023-03-21T17:22:58.012Z,99917.97
2023-03-21T17:25:27.166Z,99907.09
2023-03-21T17:27:56.286Z,99902.13
2023-03-21T17:30:27.028Z,99916.69
2023-03-21T17:32:55.566Z,99902.09
2023-03-21T17:35:24.945Z,99903.50
2023-03-21T17:37:58.869Z,99899.59
2023-03-21T17:40:30.699Z,99906.72
2023-03-21T17:43:03.967Z,99902.78
2023-03-21T17:45:32.071Z,99899.88
2023-03-21T17:48:02.663Z,99897.59
2023-03-21T17:50:39.460Z,99895.31
2023-03-21T17:53:27.302Z,99896.34
2023-03-21T17:55:55.860Z,99893.88
2023-03-21T17:58:24.123Z,99891.44
2023-03-21T18:00:52.220Z,99889.38
2023-03-21T18:03:21.378Z,99893.03
2023-03-21T18:05:50.596Z,99890.00
2023-03-21T18:08:18.656Z,99893.69
2023-03-21T18:10:48.988Z,99893.69
2023-03-21T18:13:17.347Z,99889.38
2023-03-21T18:15:45.561Z,99888.53
2023-03-21T18:18:19.331Z,99882.41
2023-03-21T18:20:53.043Z,99888.53
2023-03-21T18:23:22.313Z,99884.03
2023-03-21T18:25:53.089Z,99884.88
2023-03-21T18:28:22.487Z,99880.56
2023-03-21T18:31:07.712Z,99878.31
2023-03-21T18:33:37.798Z,99875.84
2023-03-21T18:36:09.773Z,99876.41
2023-03-21T18:38:38.208Z,99867.41
2023-03-21T18:41:16.656Z,99867.78
2023-03-21T18:44:01.713Z,99860.41
2023-03-21T18:46:33.294Z,99864.47
2023-03-21T18:49:26.996Z,99860.34
2023-03-21T18:51:49.692Z,99849.91
2023-03-21T18:54:18.819Z,99840.03
2023-03-21T18:57:33.943Z,99843.34
2023-03-21T18:59:40.342Z,99840.03
2023-03-21T19:02:09.273Z,99834.72
2023-03-21T19:04:38.263Z,99834.72
2023-03-21T19:07:08.656Z,99830.22
2023-03-21T19:09:58.132Z,99833.91
2023-03-21T19:12:27.241Z,99826.50
2023-03-21T19:14:55.783Z,99817.50
2023-03-21T19:18:15.724Z,99823.63
2023-03-21T19:20:14.100Z,99817.88
2023-03-21T19:22:42.756Z,99819.72
2023-03-21T19:25:12.263Z,99815.22
2023-03-21T19:27:42.148Z,99815.59
2023-03-21T19:30:15.633Z,99822.97
2023-03-21T19:32:44.433Z,99821.94
2023-03-21T19:35:13.270Z,99813.09
2023-03-21T19:37:41.418Z,99814.09
2023-03-21T19:40:11.307Z,99805.47
2023-03-21T19:42:44.324Z,99797.66
2023-03-21T19:45:26.530Z,99802.97
2023-03-21T19:47:54.755Z,99793.16
2023-03-21T19:50:49.343Z,99799.03
2023-03-21T19:53:17.276Z,99800.44
2023-03-21T19:55:45.412Z,99801.25
2023-03-21T19:58:16.288Z,99801.66
2023-03-21T20:00:44.460Z,99792.41
2023-03-21T20:03:13.347Z,99792.97
2023-03-21T20:05:41.748Z,99797.84
2023-03-21T20:08:20.592Z,99790.91
2023-03-21T20:10:48.701Z,99787.84
2023-03-21T20:13:19.032Z,99789.31
2023-03-21T20:15:48.289Z,99782.78
2023-03-21T20:18:16.804Z,99790.19
2023-03-21T20:20:44.858Z,99779.38
2023-03-21T20:23:15.834Z,99772.03
2023-03-21T20:25:45.673Z,99770.00
2023-03-21T20:28:25.872Z,99767.97
2023-03-21T20:30:58.631Z,99767.78
2023-03-21T20:33:26.838Z,99765.13
2023-03-21T20:36:35.680Z,99765.31
2023-03-21T20:38:48.278Z,99768.53
2023-03-21T20:41:17.592Z,99759.31
2023-03-21T20:46:37.864Z,99752.75
2023-03-21T20:49:07.574Z,99752.38
2023-03-21T20:54:24.943Z,99750.16
2023-03-21T20:56:53.008Z,99742.59
2023-03-21T20:59:27.208Z,99743.41
2023-03-21T21:01:57.373Z,99740.56
2023-03-21T21:04:44.292Z,99733.25
2023-03-21T21:07:16.271Z,99725.44
2023-03-21T21:09:44.972Z,99727.47
2023-03-21T21:12:17.356Z,99716.66
2023-03-21T21:14:47.991Z,99708.88
2023-03-21T21:18:01.964Z,99714.16
2023-03-21T21:20:23.361Z,99707.38
2023-03-21T21:22:59.661Z,99704.47
2023-03-21T21:25:29.195Z,99695.06
2023-03-21T21:27:57.590Z,99697.28
2023-03-21T21:30:27.384Z,99692.78
2023-03-21T21:32:55.556Z,99684.38
2023-03-21T21:35:24.312Z,99690.69
2023-03-21T21:37:52.396Z,99686.16
2023-03-21T21:40:23.550Z,99668.97
2023-03-21T21:42:51.826Z,99663.84
2023-03-21T21:45:21.240Z,99657.25
2023-03-21T21:47:51.012Z,99648.88
2023-03-21T21:50:26.828Z,99647.03
2023-03-21T21:52:54.882Z,99638.44
2023-03-21T21:55:23.087Z,99641.47
2023-03-21T21:57:58.123Z,99639.28
2023-03-21T22:00:27.651Z,99634.16
2023-03-21T22:02:57.979Z,99633.69
2023-03-21T22:05:26.554Z,99627.75
2023-03-21T22:07:56.261Z,99624.28
2023-03-21T22:10:27.350Z,99618.59
2023-03-21T22:12:55.374Z,99622.25
2023-03-21T22:15:24.036Z,99617.75
2023-03-21T22:17:52.576Z,99610.63
2023-03-21T22:20:22.889Z,99604.31
2023-03-21T22:22:50.924Z,99605.13
2023-03-21T22:25:19.509Z,99595.13
2023-03-21T22:27:50.460Z,99594.72
2023-03-21T22:30:19.299Z,99591.28
2023-03-21T22:33:02.571Z,99578.78
2023-03-21T22:35:38.304Z,99596.00
2023-03-21T22:38:14.355Z,99578.22
2023-03-21T22:40:43.774Z,99569.81
2023-03-21T22:43:12.237Z,99569.22
2023-03-21T22:45:40.368Z,99561.81
2023-03-21T22:48:08.517Z,99563.66
2023-03-21T22:50:38.854Z,99563.03
2023-03-21T22:53:07.580Z,99562.00
2023-03-21T22:55:35.739Z,99550.56
2023-03-21T22:58:04.429Z,99549.75
2023-03-21T23:00:32.760Z,99547.72
2023-03-21T23:03:04.773Z,99549.56
2023-03-21T23:05:33.066Z,99535.06
2023-03-21T23:08:02.887Z,99527.94
2023-03-21T23:10:30.890Z,99533.06
2023-03-21T23:12:59.120Z,99525.91
2023-03-21T23:15:27.270Z,99524.91
2023-03-21T23:17:55.797Z,99521.00
2023-03-21T23:20:23.951Z,99511.19
2023-03-21T23:22:52.070Z,99508.34
2023-03-21T23:25:21.557Z,99497.72
2023-03-21T23:27:50.075Z,99491.59
2023-03-21T23:30:18.252Z,99492.00
2023-03-21T23:32:46.642Z,99490.38
2023-03-21T23:35:14.771Z,99487.28
2023-03-21T23:37:50.040Z,99480.13
2023-03-21T23:40:18.892Z,99479.13
2023-03-21T23:42:49.528Z,99470.75
2023-03-21T23:45:17.811Z,99469.72
2023-03-21T23:47:45.937Z,99466.06
2023-03-21T23:50:19.492Z,99460.75
2023-03-21T23:52:47.708Z,99452.78
2023-03-21T23:55:16.456Z,99451.13
2023-03-21T23:57:44.550Z,99448.69
